You are not logged in, Click here to log in
ICAO: WSSS Country: 新加坡樟宜
Latitude: 1.36442 Longitude: 103.992
Total Arrivals: 84 Total Departures: 80
Latest Arrival: SQ7867 (RCKH-WSSS)Chun Tang. Chiang Latest Departure: TR2994 (WSSS-RCTP)Meng Sheng. Chan
Scenery:
METAR : WSSS 262030Z VRB01KT 9999 FEW018 BKN300 27/25 Q1010 NOSIG

新加坡樟宜機場SIN